sensor_id;sensor_type;location;lat;lon;timestamp;P1;durP1;ratioP1;P2;durP2;ratioP2
52188;SDS011;38162;45.926;13.608;2024-02-21T00:02:09;9.55;;;5.88;;
52188;SDS011;38162;45.926;13.608;2024-02-21T00:04:34;9.40;;;6.47;;
52188;SDS011;38162;45.926;13.608;2024-02-21T00:07:01;9.98;;;5.22;;
52188;SDS011;38162;45.926;13.608;2024-02-21T00:09:27;9.38;;;6.70;;
52188;SDS011;38162;45.926;13.608;2024-02-21T00:11:53;10.73;;;7.18;;
52188;SDS011;38162;45.926;13.608;2024-02-21T00:14:20;13.18;;;7.38;;
52188;SDS011;38162;45.926;13.608;2024-02-21T00:16:46;11.65;;;7.55;;
52188;SDS011;38162;45.926;13.608;2024-02-21T00:19:12;15.98;;;9.18;;
52188;SDS011;38162;45.926;13.608;2024-02-21T00:21:39;13.23;;;8.37;;
52188;SDS011;38162;45.926;13.608;2024-02-21T00:24:05;14.90;;;9.32;;
52188;SDS011;38162;45.926;13.608;2024-02-21T00:26:31;16.77;;;10.23;;
52188;SDS011;38162;45.926;13.608;2024-02-21T00:28:57;13.15;;;9.13;;
52188;SDS011;38162;45.926;13.608;2024-02-21T00:31:23;13.27;;;7.72;;
52188;SDS011;38162;45.926;13.608;2024-02-21T00:33:49;12.50;;;6.93;;
52188;SDS011;38162;45.926;13.608;2024-02-21T00:36:15;14.85;;;7.18;;
52188;SDS011;38162;45.926;13.608;2024-02-21T00:38:41;12.52;;;6.75;;
52188;SDS011;38162;45.926;13.608;2024-02-21T00:41:07;13.30;;;7.20;;
52188;SDS011;38162;45.926;13.608;2024-02-21T00:43:32;9.77;;;6.50;;
52188;SDS011;38162;45.926;13.608;2024-02-21T00:45:58;8.75;;;6.10;;
52188;SDS011;38162;45.926;13.608;2024-02-21T00:48:24;8.32;;;5.03;;
52188;SDS011;38162;45.926;13.608;2024-02-21T00:50:50;6.43;;;4.43;;
52188;SDS011;38162;45.926;13.608;2024-02-21T00:53:15;7.78;;;4.88;;
52188;SDS011;38162;45.926;13.608;2024-02-21T00:55:41;7.28;;;4.75;;
52188;SDS011;38162;45.926;13.608;2024-02-21T00:58:08;6.43;;;4.45;;
52188;SDS011;38162;45.926;13.608;2024-02-21T01:00:34;10.70;;;4.23;;
52188;SDS011;38162;45.926;13.608;2024-02-21T01:03:00;5.72;;;3.72;;
52188;SDS011;38162;45.926;13.608;2024-02-21T01:05:25;5.15;;;3.60;;
52188;SDS011;38162;45.926;13.608;2024-02-21T01:07:54;5.10;;;3.38;;
52188;SDS011;38162;45.926;13.608;2024-02-21T01:10:20;5.70;;;3.67;;
52188;SDS011;38162;45.926;13.608;2024-02-21T01:12:45;6.93;;;3.80;;
52188;SDS011;38162;45.926;13.608;2024-02-21T01:15:11;6.70;;;3.27;;
52188;SDS011;38162;45.926;13.608;2024-02-21T01:17:37;4.90;;;3.10;;
52188;SDS011;38162;45.926;13.608;2024-02-21T01:20:05;5.93;;;2.77;;
52188;SDS011;38162;45.926;13.608;2024-02-21T01:22:32;4.87;;;3.40;;
52188;SDS011;38162;45.926;13.608;2024-02-21T01:24:58;5.43;;;4.07;;
52188;SDS011;38162;45.926;13.608;2024-02-21T01:27:23;9.53;;;3.60;;
52188;SDS011;38162;45.926;13.608;2024-02-21T01:29:49;9.63;;;3.83;;
52188;SDS011;38162;45.926;13.608;2024-02-21T01:32:15;6.17;;;3.87;;
52188;SDS011;38162;45.926;13.608;2024-02-21T01:34:41;8.93;;;5.53;;
52188;SDS011;38162;45.926;13.608;2024-02-21T01:37:07;8.67;;;4.80;;
52188;SDS011;38162;45.926;13.608;2024-02-21T01:39:33;7.03;;;4.83;;
52188;SDS011;38162;45.926;13.608;2024-02-21T01:41:59;8.20;;;5.47;;
52188;SDS011;38162;45.926;13.608;2024-02-21T01:44:24;8.93;;;5.57;;
52188;SDS011;38162;45.926;13.608;2024-02-21T01:46:51;8.77;;;5.03;;
52188;SDS011;38162;45.926;13.608;2024-02-21T01:49:17;7.17;;;4.43;;
52188;SDS011;38162;45.926;13.608;2024-02-21T01:51:45;9.53;;;4.37;;
52188;SDS011;38162;45.926;13.608;2024-02-21T01:54:12;6.60;;;4.07;;
52188;SDS011;38162;45.926;13.608;2024-02-21T01:56:40;7.67;;;4.90;;
52188;SDS011;38162;45.926;13.608;2024-02-21T01:59:06;6.17;;;4.00;;
52188;SDS011;38162;45.926;13.608;2024-02-21T02:01:33;5.57;;;3.77;;
52188;SDS011;38162;45.926;13.608;2024-02-21T02:03:59;7.07;;;3.20;;
52188;SDS011;38162;45.926;13.608;2024-02-21T02:06:25;4.47;;;2.33;;
52188;SDS011;38162;45.926;13.608;2024-02-21T02:08:50;3.63;;;1.80;;
52188;SDS011;38162;45.926;13.608;2024-02-21T02:11:17;3.97;;;1.73;;
52188;SDS011;38162;45.926;13.608;2024-02-21T02:13:43;2.53;;;1.53;;
52188;SDS011;38162;45.926;13.608;2024-02-21T02:16:09;5.40;;;2.17;;
52188;SDS011;38162;45.926;13.608;2024-02-21T02:18:35;2.47;;;1.50;;
52188;SDS011;38162;45.926;13.608;2024-02-21T02:21:00;1.97;;;1.37;;
52188;SDS011;38162;45.926;13.608;2024-02-21T02:23:27;2.90;;;1.63;;
52188;SDS011;38162;45.926;13.608;2024-02-21T02:25:57;3.00;;;1.60;;
52188;SDS011;38162;45.926;13.608;2024-02-21T02:28:23;3.13;;;1.70;;
52188;SDS011;38162;45.926;13.608;2024-02-21T02:30:49;3.10;;;2.00;;
52188;SDS011;38162;45.926;13.608;2024-02-21T02:33:15;2.17;;;1.40;;
52188;SDS011;38162;45.926;13.608;2024-02-21T02:35:44;3.27;;;1.53;;
52188;SDS011;38162;45.926;13.608;2024-02-21T02:38:10;2.70;;;1.30;;
52188;SDS011;38162;45.926;13.608;2024-02-21T02:40:38;1.73;;;1.40;;
52188;SDS011;38162;45.926;13.608;2024-02-21T02:43:05;2.03;;;1.50;;
52188;SDS011;38162;45.926;13.608;2024-02-21T02:45:31;8.33;;;1.77;;
52188;SDS011;38162;45.926;13.608;2024-02-21T02:47:57;4.63;;;2.10;;
52188;SDS011;38162;45.926;13.608;2024-02-21T02:50:23;2.93;;;1.47;;
52188;SDS011;38162;45.926;13.608;2024-02-21T02:52:50;5.67;;;1.87;;
52188;SDS011;38162;45.926;13.608;2024-02-21T02:55:16;2.00;;;1.50;;
52188;SDS011;38162;45.926;13.608;2024-02-21T02:57:42;3.57;;;1.47;;
52188;SDS011;38162;45.926;13.608;2024-02-21T03:00:08;3.87;;;1.70;;
52188;SDS011;38162;45.926;13.608;2024-02-21T03:02:41;5.63;;;1.70;;
52188;SDS011;38162;45.926;13.608;2024-02-21T03:05:16;6.93;;;3.03;;
52188;SDS011;38162;45.926;13.608;2024-02-21T03:07:46;4.13;;;2.50;;
52188;SDS011;38162;45.926;13.608;2024-02-21T03:10:13;4.13;;;2.40;;
52188;SDS011;38162;45.926;13.608;2024-02-21T03:12:41;3.23;;;2.03;;
52188;SDS011;38162;45.926;13.608;2024-02-21T03:15:07;3.57;;;1.80;;
52188;SDS011;38162;45.926;13.608;2024-02-21T03:17:33;4.23;;;1.73;;
52188;SDS011;38162;45.926;13.608;2024-02-21T03:19:59;4.20;;;1.90;;
52188;SDS011;38162;45.926;13.608;2024-02-21T03:22:26;3.30;;;1.70;;
52188;SDS011;38162;45.926;13.608;2024-02-21T03:24:52;5.97;;;2.77;;
52188;SDS011;38162;45.926;13.608;2024-02-21T03:27:18;7.47;;;2.67;;
52188;SDS011;38162;45.926;13.608;2024-02-21T03:29:44;7.00;;;2.83;;
52188;SDS011;38162;45.926;13.608;2024-02-21T03:32:09;4.73;;;3.03;;
52188;SDS011;38162;45.926;13.608;2024-02-21T03:34:35;4.53;;;3.20;;
52188;SDS011;38162;45.926;13.608;2024-02-21T03:37:01;9.30;;;4.03;;
52188;SDS011;38162;45.926;13.608;2024-02-21T03:39:27;5.33;;;3.37;;
52188;SDS011;38162;45.926;13.608;2024-02-21T03:41:52;3.30;;;2.27;;
52188;SDS011;38162;45.926;13.608;2024-02-21T03:44:18;4.80;;;2.47;;
52188;SDS011;38162;45.926;13.608;2024-02-21T03:46:44;3.40;;;2.07;;
52188;SDS011;38162;45.926;13.608;2024-02-21T03:49:10;2.50;;;1.70;;
52188;SDS011;38162;45.926;13.608;2024-02-21T03:51:36;6.70;;;1.90;;
52188;SDS011;38162;45.926;13.608;2024-02-21T03:54:02;5.97;;;2.27;;
52188;SDS011;38162;45.926;13.608;2024-02-21T03:56:28;5.70;;;3.03;;
52188;SDS011;38162;45.926;13.608;2024-02-21T03:58:53;4.37;;;2.93;;
52188;SDS011;38162;45.926;13.608;2024-02-21T04:01:20;5.57;;;3.37;;
52188;SDS011;38162;45.926;13.608;2024-02-21T04:03:46;5.27;;;3.27;;
52188;SDS011;38162;45.926;13.608;2024-02-21T04:06:12;6.83;;;3.53;;
52188;SDS011;38162;45.926;13.608;2024-02-21T04:08:38;4.17;;;2.70;;
52188;SDS011;38162;45.926;13.608;2024-02-21T04:11:04;6.90;;;2.83;;
52188;SDS011;38162;45.926;13.608;2024-02-21T04:13:30;5.47;;;3.10;;
52188;SDS011;38162;45.926;13.608;2024-02-21T04:15:56;4.17;;;2.53;;
52188;SDS011;38162;45.926;13.608;2024-02-21T04:18:22;7.10;;;2.70;;
52188;SDS011;38162;45.926;13.608;2024-02-21T04:20:47;4.93;;;2.70;;
52188;SDS011;38162;45.926;13.608;2024-02-21T04:23:13;5.13;;;2.23;;
52188;SDS011;38162;45.926;13.608;2024-02-21T04:25:39;3.43;;;2.20;;
52188;SDS011;38162;45.926;13.608;2024-02-21T04:28:05;9.23;;;4.90;;
52188;SDS011;38162;45.926;13.608;2024-02-21T04:30:31;11.97;;;7.47;;
52188;SDS011;38162;45.926;13.608;2024-02-21T04:32:56;5.13;;;2.47;;
52188;SDS011;38162;45.926;13.608;2024-02-21T04:35:22;3.87;;;2.00;;
52188;SDS011;38162;45.926;13.608;2024-02-21T04:37:49;6.83;;;2.27;;
52188;SDS011;38162;45.926;13.608;2024-02-21T04:40:14;4.20;;;1.97;;
52188;SDS011;38162;45.926;13.608;2024-02-21T04:42:41;9.07;;;1.70;;
52188;SDS011;38162;45.926;13.608;2024-02-21T04:45:08;2.13;;;1.60;;
52188;SDS011;38162;45.926;13.608;2024-02-21T04:47:34;3.00;;;1.80;;
52188;SDS011;38162;45.926;13.608;2024-02-21T04:49:59;2.67;;;1.50;;
52188;SDS011;38162;45.926;13.608;2024-02-21T04:52:25;4.40;;;1.70;;
52188;SDS011;38162;45.926;13.608;2024-02-21T04:54:51;3.47;;;1.70;;
52188;SDS011;38162;45.926;13.608;2024-02-21T04:57:17;4.93;;;1.80;;
52188;SDS011;38162;45.926;13.608;2024-02-21T04:59:46;4.03;;;2.00;;
52188;SDS011;38162;45.926;13.608;2024-02-21T05:02:14;3.58;;;1.77;;
52188;SDS011;38162;45.926;13.608;2024-02-21T05:04:41;2.70;;;2.00;;
52188;SDS011;38162;45.926;13.608;2024-02-21T05:07:07;6.10;;;2.10;;
52188;SDS011;38162;45.926;13.608;2024-02-21T05:09:33;2.73;;;1.70;;
52188;SDS011;38162;45.926;13.608;2024-02-21T05:11:59;4.77;;;1.90;;
52188;SDS011;38162;45.926;13.608;2024-02-21T05:14:25;2.77;;;2.00;;
52188;SDS011;38162;45.926;13.608;2024-02-21T05:16:54;3.30;;;1.80;;
52188;SDS011;38162;45.926;13.608;2024-02-21T05:19:19;4.63;;;2.13;;
52188;SDS011;38162;45.926;13.608;2024-02-21T05:21:45;3.30;;;2.10;;
52188;SDS011;38162;45.926;13.608;2024-02-21T05:24:11;3.20;;;1.70;;
52188;SDS011;38162;45.926;13.608;2024-02-21T05:26:37;3.63;;;1.67;;
52188;SDS011;38162;45.926;13.608;2024-02-21T05:29:03;3.27;;;1.40;;
52188;SDS011;38162;45.926;13.608;2024-02-21T05:31:42;2.33;;;1.70;;
52188;SDS011;38162;45.926;13.608;2024-02-21T05:34:22;4.47;;;1.80;;
52188;SDS011;38162;45.926;13.608;2024-02-21T05:36:47;3.83;;;1.57;;
52188;SDS011;38162;45.926;13.608;2024-02-21T05:39:17;6.67;;;2.43;;
52188;SDS011;38162;45.926;13.608;2024-02-21T05:41:43;2.40;;;1.60;;
52188;SDS011;38162;45.926;13.608;2024-02-21T05:44:09;7.17;;;2.20;;
52188;SDS011;38162;45.926;13.608;2024-02-21T05:46:36;4.23;;;2.27;;
52188;SDS011;38162;45.926;13.608;2024-02-21T05:49:01;2.93;;;1.80;;
52188;SDS011;38162;45.926;13.608;2024-02-21T05:51:27;2.33;;;1.60;;
52188;SDS011;38162;45.926;13.608;2024-02-21T05:53:53;5.13;;;2.13;;
52188;SDS011;38162;45.926;13.608;2024-02-21T05:56:18;3.07;;;1.90;;
52188;SDS011;38162;45.926;13.608;2024-02-21T05:58:44;5.20;;;2.20;;
52188;SDS011;38162;45.926;13.608;2024-02-21T06:01:10;6.00;;;2.00;;
52188;SDS011;38162;45.926;13.608;2024-02-21T06:03:36;5.43;;;2.10;;
52188;SDS011;38162;45.926;13.608;2024-02-21T06:06:02;3.57;;;2.00;;
52188;SDS011;38162;45.926;13.608;2024-02-21T06:08:30;4.67;;;2.20;;
52188;SDS011;38162;45.926;13.608;2024-02-21T06:10:55;5.33;;;2.30;;
52188;SDS011;38162;45.926;13.608;2024-02-21T06:13:21;4.27;;;2.13;;
52188;SDS011;38162;45.926;13.608;2024-02-21T06:15:50;3.43;;;1.80;;
52188;SDS011;38162;45.926;13.608;2024-02-21T06:18:20;6.90;;;2.10;;
52188;SDS011;38162;45.926;13.608;2024-02-21T06:20:46;3.37;;;1.80;;
52188;SDS011;38162;45.926;13.608;2024-02-21T06:23:12;7.90;;;2.13;;
52188;SDS011;38162;45.926;13.608;2024-02-21T06:25:39;11.93;;;2.20;;
52188;SDS011;38162;45.926;13.608;2024-02-21T06:28:06;9.20;;;2.30;;
52188;SDS011;38162;45.926;13.608;2024-02-21T06:30:31;5.30;;;1.93;;
52188;SDS011;38162;45.926;13.608;2024-02-21T06:32:57;6.87;;;2.43;;
52188;SDS011;38162;45.926;13.608;2024-02-21T06:35:24;9.17;;;2.10;;
52188;SDS011;38162;45.926;13.608;2024-02-21T06:37:50;5.33;;;2.33;;
52188;SDS011;38162;45.926;13.608;2024-02-21T06:40:20;3.73;;;2.10;;
52188;SDS011;38162;45.926;13.608;2024-02-21T06:42:47;5.63;;;2.23;;
52188;SDS011;38162;45.926;13.608;2024-02-21T06:45:13;5.27;;;1.90;;
52188;SDS011;38162;45.926;13.608;2024-02-21T06:47:40;3.43;;;2.17;;
52188;SDS011;38162;45.926;13.608;2024-02-21T06:50:05;4.53;;;2.07;;
52188;SDS011;38162;45.926;13.608;2024-02-21T06:52:31;4.83;;;2.00;;
52188;SDS011;38162;45.926;13.608;2024-02-21T06:54:57;5.00;;;1.80;;
52188;SDS011;38162;45.926;13.608;2024-02-21T06:57:23;8.87;;;2.23;;
52188;SDS011;38162;45.926;13.608;2024-02-21T06:59:49;6.83;;;2.37;;
52188;SDS011;38162;45.926;13.608;2024-02-21T07:02:15;16.37;;;3.57;;
52188;SDS011;38162;45.926;13.608;2024-02-21T07:04:40;20.83;;;3.77;;
52188;SDS011;38162;45.926;13.608;2024-02-21T07:07:06;15.37;;;4.10;;
52188;SDS011;38162;45.926;13.608;2024-02-21T07:09:32;15.60;;;2.70;;
52188;SDS011;38162;45.926;13.608;2024-02-21T07:11:58;15.93;;;4.00;;
52188;SDS011;38162;45.926;13.608;2024-02-21T07:14:24;25.10;;;5.77;;
52188;SDS011;38162;45.926;13.608;2024-02-21T07:16:51;38.97;;;6.10;;
52188;SDS011;38162;45.926;13.608;2024-02-21T07:19:16;15.37;;;6.23;;
52188;SDS011;38162;45.926;13.608;2024-02-21T07:21:42;29.77;;;6.90;;
52188;SDS011;38162;45.926;13.608;2024-02-21T07:24:08;24.87;;;6.17;;
52188;SDS011;38162;45.926;13.608;2024-02-21T07:26:34;21.10;;;6.30;;
52188;SDS011;38162;45.926;13.608;2024-02-21T07:29:00;26.57;;;7.37;;
52188;SDS011;38162;45.926;13.608;2024-02-21T07:31:26;29.67;;;6.47;;
52188;SDS011;38162;45.926;13.608;2024-02-21T07:33:52;29.10;;;6.40;;
52188;SDS011;38162;45.926;13.608;2024-02-21T07:36:27;14.13;;;5.50;;
52188;SDS011;38162;45.926;13.608;2024-02-21T07:38:55;14.27;;;5.53;;
52188;SDS011;38162;45.926;13.608;2024-02-21T07:41:20;21.00;;;6.17;;
52188;SDS011;38162;45.926;13.608;2024-02-21T07:43:46;16.27;;;5.43;;
52188;SDS011;38162;45.926;13.608;2024-02-21T07:46:13;23.67;;;5.40;;
52188;SDS011;38162;45.926;13.608;2024-02-21T07:48:39;16.50;;;4.90;;
52188;SDS011;38162;45.926;13.608;2024-02-21T07:51:05;21.87;;;4.30;;
52188;SDS011;38162;45.926;13.608;2024-02-21T07:53:31;4.87;;;2.50;;
52188;SDS011;38162;45.926;13.608;2024-02-21T07:55:56;11.87;;;2.60;;
52188;SDS011;38162;45.926;13.608;2024-02-21T07:58:22;8.27;;;2.70;;
52188;SDS011;38162;45.926;13.608;2024-02-21T08:00:48;6.97;;;2.40;;
52188;SDS011;38162;45.926;13.608;2024-02-21T08:03:14;7.63;;;2.10;;
52188;SDS011;38162;45.926;13.608;2024-02-21T08:05:43;5.57;;;1.90;;
52188;SDS011;38162;45.926;13.608;2024-02-21T08:08:09;4.70;;;1.60;;
52188;SDS011;38162;45.926;13.608;2024-02-21T08:10:43;4.20;;;1.90;;
52188;SDS011;38162;45.926;13.608;2024-02-21T08:13:09;2.60;;;1.50;;
52188;SDS011;38162;45.926;13.608;2024-02-21T08:15:34;7.00;;;2.15;;
52188;SDS011;38162;45.926;13.608;2024-02-21T08:18:00;3.50;;;1.73;;
52188;SDS011;38162;45.926;13.608;2024-02-21T08:20:28;4.20;;;1.60;;
52188;SDS011;38162;45.926;13.608;2024-02-21T08:22:54;4.47;;;1.53;;
52188;SDS011;38162;45.926;13.608;2024-02-21T08:25:20;2.95;;;1.58;;
52188;SDS011;38162;45.926;13.608;2024-02-21T08:27:46;5.75;;;2.30;;
52188;SDS011;38162;45.926;13.608;2024-02-21T08:30:11;4.72;;;2.00;;
52188;SDS011;38162;45.926;13.608;2024-02-21T08:32:37;4.73;;;2.00;;
52188;SDS011;38162;45.926;13.608;2024-02-21T08:35:03;4.95;;;1.85;;
52188;SDS011;38162;45.926;13.608;2024-02-21T08:37:30;5.80;;;2.03;;
52188;SDS011;38162;45.926;13.608;2024-02-21T08:39:56;4.47;;;2.13;;
52188;SDS011;38162;45.926;13.608;2024-02-21T08:42:22;2.85;;;1.98;;
52188;SDS011;38162;45.926;13.608;2024-02-21T08:44:48;5.93;;;2.03;;
52188;SDS011;38162;45.926;13.608;2024-02-21T08:47:14;2.58;;;1.75;;
52188;SDS011;38162;45.926;13.608;2024-02-21T08:49:40;3.33;;;1.95;;
52188;SDS011;38162;45.926;13.608;2024-02-21T08:52:06;4.32;;;2.42;;
52188;SDS011;38162;45.926;13.608;2024-02-21T08:54:32;9.13;;;2.10;;
52188;SDS011;38162;45.926;13.608;2024-02-21T08:56:58;6.07;;;2.55;;
52188;SDS011;38162;45.926;13.608;2024-02-21T08:59:24;5.30;;;2.60;;
52188;SDS011;38162;45.926;13.608;2024-02-21T09:01:51;6.30;;;2.67;;
52188;SDS011;38162;45.926;13.608;2024-02-21T09:04:20;6.55;;;2.60;;
52188;SDS011;38162;45.926;13.608;2024-02-21T09:06:45;4.80;;;2.45;;
52188;SDS011;38162;45.926;13.608;2024-02-21T09:09:11;8.80;;;2.50;;
52188;SDS011;38162;45.926;13.608;2024-02-21T09:11:37;4.72;;;2.05;;
52188;SDS011;38162;45.926;13.608;2024-02-21T09:14:05;7.40;;;2.30;;
52188;SDS011;38162;45.926;13.608;2024-02-21T09:16:33;3.67;;;2.17;;
52188;SDS011;38162;45.926;13.608;2024-02-21T09:18:59;2.80;;;2.03;;
52188;SDS011;38162;45.926;13.608;2024-02-21T09:21:25;9.40;;;2.40;;
52188;SDS011;38162;45.926;13.608;2024-02-21T09:23:51;5.40;;;2.40;;
52188;SDS011;38162;45.926;13.608;2024-02-21T09:26:17;2.88;;;1.83;;
52188;SDS011;38162;45.926;13.608;2024-02-21T09:28:43;4.07;;;1.98;;
52188;SDS011;38162;45.926;13.608;2024-02-21T09:31:10;4.43;;;2.35;;
52188;SDS011;38162;45.926;13.608;2024-02-21T09:33:35;4.63;;;1.77;;
52188;SDS011;38162;45.926;13.608;2024-02-21T09:36:02;3.22;;;1.70;;
52188;SDS011;38162;45.926;13.608;2024-02-21T09:38:30;3.47;;;1.83;;
52188;SDS011;38162;45.926;13.608;2024-02-21T09:41:00;5.18;;;2.20;;
52188;SDS011;38162;45.926;13.608;2024-02-21T09:43:33;4.15;;;1.73;;
52188;SDS011;38162;45.926;13.608;2024-02-21T09:46:01;3.92;;;2.00;;
52188;SDS011;38162;45.926;13.608;2024-02-21T09:51:07;7.03;;;1.90;;
52188;SDS011;38162;45.926;13.608;2024-02-21T09:53:37;3.58;;;1.90;;
52188;SDS011;38162;45.926;13.608;2024-02-21T09:56:03;9.20;;;2.00;;
52188;SDS011;38162;45.926;13.608;2024-02-21T09:58:33;6.22;;;2.00;;
52188;SDS011;38162;45.926;13.608;2024-02-21T10:00:59;19.80;;;2.25;;
52188;SDS011;38162;45.926;13.608;2024-02-21T10:03:25;4.28;;;1.77;;
52188;SDS011;38162;45.926;13.608;2024-02-21T10:05:51;5.05;;;1.90;;
52188;SDS011;38162;45.926;13.608;2024-02-21T10:08:18;5.40;;;1.85;;
52188;SDS011;38162;45.926;13.608;2024-02-21T10:10:45;21.38;;;2.55;;
52188;SDS011;38162;45.926;13.608;2024-02-21T10:13:28;3.53;;;2.00;;
52188;SDS011;38162;45.926;13.608;2024-02-21T10:16:07;4.60;;;1.90;;
52188;SDS011;38162;45.926;13.608;2024-02-21T10:18:33;4.05;;;1.85;;
52188;SDS011;38162;45.926;13.608;2024-02-21T10:21:04;4.75;;;1.77;;
52188;SDS011;38162;45.926;13.608;2024-02-21T10:23:44;62.60;;;3.58;;
52188;SDS011;38162;45.926;13.608;2024-02-21T10:26:10;3.90;;;1.80;;
52188;SDS011;38162;45.926;13.608;2024-02-21T10:28:37;13.15;;;2.30;;
52188;SDS011;38162;45.926;13.608;2024-02-21T10:31:21;6.25;;;1.90;;
52188;SDS011;38162;45.926;13.608;2024-02-21T10:33:58;4.35;;;2.22;;
52188;SDS011;38162;45.926;13.608;2024-02-21T10:36:30;4.30;;;1.95;;
52188;SDS011;38162;45.926;13.608;2024-02-21T10:38:56;5.00;;;1.88;;
52188;SDS011;38162;45.926;13.608;2024-02-21T10:41:23;4.43;;;2.10;;
52188;SDS011;38162;45.926;13.608;2024-02-21T10:43:50;2.92;;;2.00;;
52188;SDS011;38162;45.926;13.608;2024-02-21T10:46:20;5.40;;;1.95;;
52188;SDS011;38162;45.926;13.608;2024-02-21T10:48:48;4.13;;;2.22;;
52188;SDS011;38162;45.926;13.608;2024-02-21T10:51:43;6.03;;;2.25;;
52188;SDS011;38162;45.926;13.608;2024-02-21T10:54:30;5.68;;;2.15;;
52188;SDS011;38162;45.926;13.608;2024-02-21T10:57:02;5.43;;;2.40;;
52188;SDS011;38162;45.926;13.608;2024-02-21T10:59:30;5.53;;;2.22;;
52188;SDS011;38162;45.926;13.608;2024-02-21T11:01:57;6.38;;;2.35;;
52188;SDS011;38162;45.926;13.608;2024-02-21T11:04:23;5.05;;;2.15;;
52188;SDS011;38162;45.926;13.608;2024-02-21T11:06:50;12.07;;;2.53;;
52188;SDS011;38162;45.926;13.608;2024-02-21T11:09:16;5.97;;;2.42;;
52188;SDS011;38162;45.926;13.608;2024-02-21T11:11:45;4.07;;;1.98;;
52188;SDS011;38162;45.926;13.608;2024-02-21T11:14:17;7.63;;;2.17;;
52188;SDS011;38162;45.926;13.608;2024-02-21T11:19:18;2.78;;;1.65;;
52188;SDS011;38162;45.926;13.608;2024-02-21T11:21:45;3.78;;;1.60;;
52188;SDS011;38162;45.926;13.608;2024-02-21T11:24:13;3.97;;;2.00;;
52188;SDS011;38162;45.926;13.608;2024-02-21T11:26:39;3.22;;;2.30;;
52188;SDS011;38162;45.926;13.608;2024-02-21T11:29:08;2.78;;;1.90;;
52188;SDS011;38162;45.926;13.608;2024-02-21T11:31:41;5.40;;;2.30;;
52188;SDS011;38162;45.926;13.608;2024-02-21T11:34:09;4.90;;;2.35;;
52188;SDS011;38162;45.926;13.608;2024-02-21T11:36:35;3.30;;;1.90;;
52188;SDS011;38162;45.926;13.608;2024-02-21T11:39:10;4.07;;;2.20;;
52188;SDS011;38162;45.926;13.608;2024-02-21T11:41:36;3.40;;;2.10;;
52188;SDS011;38162;45.926;13.608;2024-02-21T11:44:02;3.65;;;2.38;;
52188;SDS011;38162;45.926;13.608;2024-02-21T11:46:28;2.70;;;1.90;;
52188;SDS011;38162;45.926;13.608;2024-02-21T11:48:54;5.70;;;2.35;;
52188;SDS011;38162;45.926;13.608;2024-02-21T11:51:24;2.88;;;1.70;;
52188;SDS011;38162;45.926;13.608;2024-02-21T11:53:52;3.08;;;1.73;;
52188;SDS011;38162;45.926;13.608;2024-02-21T11:56:18;8.52;;;2.20;;
52188;SDS011;38162;45.926;13.608;2024-02-21T11:58:45;5.18;;;1.80;;
52188;SDS011;38162;45.926;13.608;2024-02-21T12:01:14;4.30;;;2.30;;
52188;SDS011;38162;45.926;13.608;2024-02-21T12:03:41;3.00;;;1.95;;
52188;SDS011;38162;45.926;13.608;2024-02-21T12:06:07;3.92;;;1.77;;
52188;SDS011;38162;45.926;13.608;2024-02-21T12:08:43;2.13;;;1.40;;
52188;SDS011;38162;45.926;13.608;2024-02-21T12:11:19;2.25;;;1.63;;
52188;SDS011;38162;45.926;13.608;2024-02-21T12:13:46;3.58;;;1.98;;
52188;SDS011;38162;45.926;13.608;2024-02-21T12:16:14;2.50;;;1.75;;
52188;SDS011;38162;45.926;13.608;2024-02-21T12:18:43;3.58;;;2.17;;
52188;SDS011;38162;45.926;13.608;2024-02-21T12:21:09;3.28;;;1.77;;
52188;SDS011;38162;45.926;13.608;2024-02-21T12:23:37;2.90;;;1.80;;
52188;SDS011;38162;45.926;13.608;2024-02-21T12:26:03;2.58;;;1.40;;
52188;SDS011;38162;45.926;13.608;2024-02-21T12:28:30;4.30;;;1.80;;
52188;SDS011;38162;45.926;13.608;2024-02-21T12:30:55;2.60;;;1.65;;
52188;SDS011;38162;45.926;13.608;2024-02-21T12:33:21;3.55;;;1.70;;
52188;SDS011;38162;45.926;13.608;2024-02-21T12:35:47;5.32;;;1.58;;
52188;SDS011;38162;45.926;13.608;2024-02-21T12:38:14;3.05;;;1.85;;
52188;SDS011;38162;45.926;13.608;2024-02-21T12:40:40;3.33;;;2.22;;
52188;SDS011;38162;45.926;13.608;2024-02-21T12:43:05;4.88;;;2.22;;
52188;SDS011;38162;45.926;13.608;2024-02-21T12:45:31;4.53;;;2.13;;
52188;SDS011;38162;45.926;13.608;2024-02-21T12:47:58;2.85;;;1.88;;
52188;SDS011;38162;45.926;13.608;2024-02-21T12:50:24;3.67;;;2.30;;
52188;SDS011;38162;45.926;13.608;2024-02-21T12:52:50;3.40;;;1.92;;
52188;SDS011;38162;45.926;13.608;2024-02-21T12:55:16;4.05;;;2.10;;
52188;SDS011;38162;45.926;13.608;2024-02-21T12:57:42;3.60;;;1.80;;
52188;SDS011;38162;45.926;13.608;2024-02-21T13:00:08;4.15;;;2.10;;
52188;SDS011;38162;45.926;13.608;2024-02-21T13:02:36;3.75;;;2.08;;
52188;SDS011;38162;45.926;13.608;2024-02-21T13:05:02;2.88;;;2.00;;
52188;SDS011;38162;45.926;13.608;2024-02-21T13:07:28;5.03;;;1.90;;
52188;SDS011;38162;45.926;13.608;2024-02-21T13:09:54;4.15;;;2.08;;
52188;SDS011;38162;45.926;13.608;2024-02-21T13:12:20;2.38;;;1.80;;
52188;SDS011;38162;45.926;13.608;2024-02-21T13:14:46;4.88;;;2.25;;
52188;SDS011;38162;45.926;13.608;2024-02-21T13:17:11;3.90;;;2.03;;
52188;SDS011;38162;45.926;13.608;2024-02-21T13:19:37;6.63;;;2.83;;
52188;SDS011;38162;45.926;13.608;2024-02-21T13:22:03;5.75;;;2.20;;
52188;SDS011;38162;45.926;13.608;2024-02-21T13:24:29;4.68;;;2.17;;
52188;SDS011;38162;45.926;13.608;2024-02-21T13:26:56;4.03;;;1.88;;
52188;SDS011;38162;45.926;13.608;2024-02-21T13:29:22;3.67;;;2.03;;
52188;SDS011;38162;45.926;13.608;2024-02-21T13:31:47;3.45;;;1.80;;
52188;SDS011;38162;45.926;13.608;2024-02-21T13:34:15;3.15;;;2.08;;
52188;SDS011;38162;45.926;13.608;2024-02-21T13:36:42;3.38;;;1.90;;
52188;SDS011;38162;45.926;13.608;2024-02-21T13:39:07;3.70;;;2.20;;
52188;SDS011;38162;45.926;13.608;2024-02-21T13:41:33;3.38;;;1.83;;
52188;SDS011;38162;45.926;13.608;2024-02-21T13:43:59;3.50;;;2.08;;
52188;SDS011;38162;45.926;13.608;2024-02-21T13:46:25;2.95;;;1.95;;
52188;SDS011;38162;45.926;13.608;2024-02-21T13:48:52;2.40;;;1.80;;
52188;SDS011;38162;45.926;13.608;2024-02-21T13:51:28;3.60;;;1.98;;
52188;SDS011;38162;45.926;13.608;2024-02-21T13:53:54;5.25;;;2.75;;
52188;SDS011;38162;45.926;13.608;2024-02-21T13:56:19;3.55;;;2.17;;
52188;SDS011;38162;45.926;13.608;2024-02-21T13:58:45;3.17;;;1.98;;
52188;SDS011;38162;45.926;13.608;2024-02-21T14:01:11;3.42;;;2.17;;
52188;SDS011;38162;45.926;13.608;2024-02-21T14:03:36;4.60;;;2.50;;
52188;SDS011;38162;45.926;13.608;2024-02-21T14:06:02;3.47;;;2.00;;
52188;SDS011;38162;45.926;13.608;2024-02-21T14:08:29;3.13;;;2.28;;
52188;SDS011;38162;45.926;13.608;2024-02-21T14:10:54;4.47;;;2.00;;
52188;SDS011;38162;45.926;13.608;2024-02-21T14:13:24;7.28;;;2.33;;
52188;SDS011;38162;45.926;13.608;2024-02-21T14:15:50;2.95;;;1.70;;
52188;SDS011;38162;45.926;13.608;2024-02-21T14:18:16;3.95;;;1.95;;
52188;SDS011;38162;45.926;13.608;2024-02-21T14:20:42;4.43;;;2.30;;
52188;SDS011;38162;45.926;13.608;2024-02-21T14:23:08;3.38;;;2.03;;
52188;SDS011;38162;45.926;13.608;2024-02-21T14:25:34;3.03;;;1.88;;
52188;SDS011;38162;45.926;13.608;2024-02-21T14:28:00;3.70;;;1.85;;
52188;SDS011;38162;45.926;13.608;2024-02-21T14:30:25;4.85;;;1.92;;
52188;SDS011;38162;45.926;13.608;2024-02-21T14:32:51;3.70;;;2.05;;
52188;SDS011;38162;45.926;13.608;2024-02-21T14:35:17;2.97;;;2.10;;
52188;SDS011;38162;45.926;13.608;2024-02-21T14:37:43;3.75;;;2.63;;